• Join FlightAware (Why Join?)
  • Login
  • US Flag 
04:09PM EST


 

Airport Tracker/Info


-or-


 

Live Flight TrackerFlight Track Log ✈ SWA1379 ✈ 29-Dec-2013 ✈ KFLL - KJAX

Flight Track Log - Related Links

Times and Time Zones

All times are in EST time to prevent confusion due to time zone crossing. See the SWA1379 flight status page for this flight to view local times or setup timezone preferences in your user account.

Time Position Orientation Groundspeed Altitude Reporting Facility
EST Latitude Longitude Course Direction KTS MPH feet Rate Location/Type
04:59PM 26.0739 -80.1806 275° West 156 180 900  Level Miami Center
05:00PM 26.0806 -80.2594 275° West 220 253 3,800 1,680 Climbing Miami Center
05:01PM 26.1297 -80.2931 328° Northwest 287 330 4,500 840 Climbing Miami Center
05:01PM 26.1464 -80.2983 344° North 302 348 4,700 1,860 Climbing Miami Center
05:02PM 26.2089 -80.3094 351° North 302 348 6,400 2,940 Climbing Miami Center
05:03PM 26.2856 -80.3347 344° North 299 344 9,900 2,580 Climbing Miami Center
05:04PM 26.3644 -80.3581 345° North 307 353 11,600 2,280 Climbing Miami Center
05:05PM 26.4681 -80.3889 345° North 338 389 14,500 2,160 Climbing Miami Center
05:06PM 26.5592 -80.4147 346° North 361 415 16,000 960 Climbing Miami Center
05:07PM 26.6667 -80.4622 338° Northwest 369 425 16,500 1,680 Climbing Miami Center
05:08PM 26.7492 -80.4997 338° Northwest 367 422 19,400 1,980 Climbing Miami Center
05:09PM 26.8442 -80.5444 337° Northwest 367 422 20,500 1,500 Climbing Miami Center
05:10PM 26.9475 -80.5919 338° Northwest 380 437 22,500 1,920 Climbing Miami Center
05:11PM 27.0506 -80.6397 338° Northwest 387 445 24,400 1,680 Climbing Miami Center
05:12PM 27.1558 -80.6875 338° Northwest 399 459 25,900 1,440 Climbing Miami Center
05:13PM 27.2611 -80.7353 338° Northwest 399 459 27,300 1,440 Climbing Miami Center
05:14PM 27.3806 -80.7908 338° Northwest 410 472 28,800 1,500 Climbing Miami Center
05:15PM 27.4919 -80.8414 338° Northwest 421 484 30,400 1,500 Climbing Miami Center
05:16PM 27.5992 -80.8919 337° Northwest 421 484 31,900 1,260 Climbing Miami Center
05:17PM 27.7061 -80.9425 337° Northwest 421 484 33,000 960 Climbing Miami Center
05:18PM 27.8153 -80.9936 338° Northwest 421 484 33,900 480 Climbing Miami Center
05:19PM 27.9247 -81.0419 339° North 416 479 34,000  Climbing Miami Center
05:20PM 28.0317 -81.0931 337° Northwest 416 479 34,000  Level Miami Center
05:21PM 28.1386 -81.1464 336° Northwest 411 473 34,000  Level Miami Center
05:22PM 28.2475 -81.1978 337° Northwest 416 479 34,000  Level Miami Center
05:23PM 28.3544 -81.2492 337° Northwest 416 479 34,000 -540 Level Miami Center
05:24PM 28.4656 -81.3006 338° Northwest 416 479 33,000 -960 Descending Miami Center
05:25PM 28.5792 -81.3431 342° North 421 484 32,100 -960 Descending Miami Center
05:26PM 28.7186 -81.3514 357° North 436 502 31,000 -1,020 Descending Jacksonville Center
05:27PM 28.8419 -81.3614 356° North 436 502 30,000 -1,080 Descending Jacksonville Center
05:28PM 28.9611 -81.3739 355° North 436 502 28,900 -1,320 Descending Jacksonville Center
05:29PM 29.0781 -81.3839 356° North 436 502 27,400 -1,860 Descending Jacksonville Center
05:30PM 29.1931 -81.3989 354° North 430 495 25,200 -2,340 Descending Jacksonville Center
05:31PM 29.3058 -81.4089 356° North 412 474 22,900 -2,400 Descending Jacksonville Center
05:31PM 29.3081 -81.4136 298° West 418 481 22,800 -1,500 Descending Jacksonville Center
05:31PM 29.3228 -81.4111 North 410 472 22,600 -2,100 Descending Jacksonville Center
05:32PM 29.4189 -81.4217 355° North 406 467 20,700 -2,280 Descending Jacksonville Center
05:32PM 29.4375 -81.4261 348° North 391 450 20,300 -2,220 Descending Jacksonville Center
05:33PM 29.5211 -81.4344 355° North 392 451 18,500 -2,280 Descending Jacksonville Center
05:33PM 29.5442 -81.4364 356° North 385 443 18,000 -2,100 Descending Jacksonville Center
05:34PM 29.6156 -81.4736 336° Northwest 358 412 16,400 -1,980 Descending Jacksonville Center
05:34PM 29.6283 -81.4900 312° West 328 377 16,000 -1,800 Descending Jacksonville Center
05:35PM 29.6811 -81.5492 316° Northwest 332 382 14,600 -1,800 Descending Jacksonville Center
05:36PM 29.7044 -81.5750 316° Northwest 341 392 14,000 -2,040 Descending Jacksonville Center
05:36PM 29.7467 -81.6272 313° West 337 388 12,600 -2,100 Descending Jacksonville Center
05:37PM 29.7781 -81.6458 333° Northwest 346 398 11,900 -1,620 Descending Jacksonville Center
05:37PM 29.8389 -81.6594 349° North 331 381 11,000 -1,200 Descending Jacksonville Center
05:38PM 29.8722 -81.6614 357° North 339 390 10,700 -1,020 Descending Jacksonville Center
05:38PM 29.9267 -81.6728 350° North 319 367 10,000 -1,320 Descending Jacksonville Center
05:39PM 29.9558 -81.6794 349° North 303 349 9,400 -1,740 Descending Jacksonville Center
05:39PM 30.0122 -81.6764 North 309 356 8,300 -1,680 Descending Jacksonville Center
05:40PM 30.0436 -81.6783 357° North 310 357 7,700 -1,500 Descending Jacksonville Center
05:40PM 30.0978 -81.6803 358° North 309 356 6,800 -1,620 Descending Jacksonville Center
05:41PM 30.1333 -81.6797 North 299 344 6,100 -1,800 Descending Jacksonville Center
05:42PM 30.2106 -81.6786 North 284 327 4,300 -1,500 Descending Jacksonville Center
05:43PM 30.2856 -81.6681 North 272 313 3,100 -900 Descending Jacksonville Center
05:44PM 30.3522 -81.6383 21° North 236 272 2,500 -600 Descending Jacksonville Center
05:45PM 30.4064 -81.6161 19° North 186 214 2,000 -660 Descending Jacksonville Center
05:46PM 30.4419 -81.6347 336° Northwest 138 159 1,200 -780 Descending Jacksonville Center
05:47PM 30.4694 -81.6706 312° West 135 155 300 -780 Descending Jacksonville Center
05:49PM 30.4833 -81.6833 23° Northeast  Level FlightAware Approximate
05:56PM 30.4941 -81.6878 23° Northeast  Level Estimated